createdAt,value
2019-04-02T00:00:07.607Z,0.00
2019-04-02T00:01:07.623Z,0.00
2019-04-02T00:02:07.626Z,0.00
2019-04-02T00:03:09.065Z,0.00
2019-04-02T00:04:28.592Z,0.00
2019-04-02T00:05:07.585Z,0.00
2019-04-02T00:06:07.588Z,0.00
2019-04-02T00:07:07.621Z,0.00
2019-04-02T00:08:07.573Z,0.00
2019-04-02T00:09:07.581Z,0.00
2019-04-02T00:10:28.566Z,0.00
2019-04-02T00:11:07.546Z,0.00
2019-04-02T00:12:07.558Z,0.00
2019-04-02T00:13:07.534Z,0.00
2019-04-02T00:14:07.536Z,0.00
2019-04-02T00:15:07.516Z,0.00
2019-04-02T00:16:28.533Z,0.00
2019-04-02T00:17:07.495Z,0.00
2019-04-02T00:18:08.358Z,0.00
2019-04-02T00:19:07.497Z,0.00
2019-04-02T00:20:07.500Z,0.00
2019-04-02T00:21:07.487Z,0.00
2019-04-02T00:22:29.381Z,0.00
2019-04-02T00:23:07.458Z,0.00
2019-04-02T00:24:07.491Z,0.00
2019-04-02T00:25:07.480Z,0.00
2019-04-02T00:26:07.473Z,0.00
2019-04-02T00:27:07.485Z,0.00
2019-04-02T00:28:28.458Z,0.00
2019-04-02T00:29:07.563Z,0.00
2019-04-02T00:30:07.529Z,0.00
2019-04-02T00:31:07.538Z,0.00
2019-04-02T00:32:07.551Z,0.00
2019-04-02T00:33:09.186Z,0.00
2019-04-02T00:34:28.387Z,0.00
2019-04-02T00:35:07.542Z,0.00
2019-04-02T00:36:07.448Z,0.00
2019-04-02T00:37:08.454Z,0.00
2019-04-02T00:38:07.431Z,0.00
2019-04-02T00:39:07.436Z,0.00
2019-04-02T00:40:28.336Z,0.00
2019-04-02T00:41:07.332Z,0.00
2019-04-02T00:42:07.342Z,0.00
2019-04-02T00:43:07.344Z,0.00
2019-04-02T00:44:07.296Z,0.00
2019-04-02T00:45:07.290Z,0.00
2019-04-02T00:46:28.331Z,0.00
2019-04-02T00:47:07.285Z,0.00
2019-04-02T00:48:07.266Z,0.00
2019-04-02T00:49:07.277Z,0.00
2019-04-02T00:50:07.263Z,0.00
2019-04-02T00:51:08.239Z,0.00
2019-04-02T00:52:28.258Z,0.00
2019-04-02T00:53:07.248Z,0.00
2019-04-02T00:54:07.230Z,0.00
2019-04-02T00:55:07.213Z,0.00
2019-04-02T00:56:07.215Z,0.00
2019-04-02T00:57:07.266Z,0.00
2019-04-02T00:58:28.205Z,0.00
2019-04-02T00:59:07.181Z,0.00
2019-04-02T01:00:07.182Z,0.00
2019-04-02T01:01:07.171Z,0.00
2019-04-02T01:02:07.181Z,0.00
2019-04-02T01:03:07.154Z,0.00
2019-04-02T01:04:28.126Z,0.00
2019-04-02T01:05:08.220Z,0.00
2019-04-02T01:06:07.121Z,0.00
2019-04-02T01:07:07.118Z,0.00
2019-04-02T01:08:07.112Z,0.00
2019-04-02T01:09:07.111Z,0.00
2019-04-02T01:10:28.109Z,0.00
2019-04-02T01:11:07.086Z,0.00
2019-04-02T01:12:07.086Z,0.00
2019-04-02T01:13:07.090Z,0.00
2019-04-02T01:14:07.058Z,0.00
2019-04-02T01:15:07.062Z,0.00
2019-04-02T01:16:28.056Z,0.00
2019-04-02T01:17:07.041Z,0.00
2019-04-02T01:18:07.053Z,0.00
2019-04-02T01:19:08.093Z,0.00
2019-04-02T01:20:08.077Z,0.00
2019-04-02T01:21:07.024Z,0.00
2019-04-02T01:22:28.015Z,0.00
2019-04-02T01:23:07.022Z,0.00
2019-04-02T01:24:07.003Z,0.00
2019-04-02T01:25:06.979Z,0.00
2019-04-02T01:26:07.023Z,0.00
2019-04-02T01:27:06.966Z,0.00
2019-04-02T01:28:27.973Z,0.00
2019-04-02T01:29:06.940Z,0.00
2019-04-02T01:30:06.953Z,0.00
2019-04-02T01:31:06.941Z,0.00
2019-04-02T01:32:06.948Z,0.00
2019-04-02T01:33:06.935Z,0.00
2019-04-02T01:34:27.925Z,0.00
2019-04-02T01:35:07.693Z,0.00
2019-04-02T01:36:06.898Z,0.00
2019-04-02T01:37:06.894Z,0.00
2019-04-02T01:38:06.881Z,0.00
2019-04-02T01:39:06.871Z,0.00
2019-04-02T01:40:28.321Z,0.00
2019-04-02T01:41:06.852Z,0.00
2019-04-02T01:42:06.836Z,0.00
2019-04-02T01:43:06.850Z,0.00
2019-04-02T01:44:06.832Z,0.00
2019-04-02T01:45:06.828Z,0.00
2019-04-02T01:46:27.807Z,0.00
2019-04-02T01:47:06.814Z,0.00
2019-04-02T01:48:06.803Z,0.00
2019-04-02T01:49:06.792Z,0.00
2019-04-02T01:50:08.149Z,0.00
2019-04-02T01:51:06.792Z,0.00
2019-04-02T01:52:27.791Z,0.00
2019-04-02T01:53:06.778Z,0.00
2019-04-02T01:54:06.752Z,0.00
2019-04-02T01:55:06.751Z,0.00
2019-04-02T01:56:07.529Z,0.00
2019-04-02T01:57:06.742Z,0.00
2019-04-02T01:58:27.737Z,0.00
2019-04-02T01:59:06.726Z,0.00
2019-04-02T02:00:06.699Z,0.00
2019-04-02T02:01:06.697Z,0.00
2019-04-02T02:02:06.690Z,0.00
2019-04-02T02:03:06.705Z,0.00
2019-04-02T02:04:27.678Z,0.00
2019-04-02T02:05:06.673Z,0.00
2019-04-02T02:06:06.676Z,0.00
2019-04-02T02:07:06.659Z,0.00
2019-04-02T02:08:08.091Z,0.00
2019-04-02T02:09:06.658Z,0.00
2019-04-02T02:10:27.637Z,0.00
2019-04-02T02:11:06.638Z,0.00
2019-04-02T02:12:06.627Z,0.00
2019-04-02T02:13:06.605Z,0.00
2019-04-02T02:14:06.590Z,0.00
2019-04-02T02:15:06.598Z,0.00
2019-04-02T02:16:27.590Z,0.00
2019-04-02T02:17:06.565Z,0.00
2019-04-02T02:18:06.577Z,0.00
2019-04-02T02:19:06.559Z,0.00
2019-04-02T02:20:06.534Z,0.00
2019-04-02T02:21:06.550Z,0.00
2019-04-02T02:22:27.543Z,0.00
2019-04-02T02:23:06.535Z,0.00
2019-04-02T02:24:06.517Z,0.00
2019-04-02T02:25:08.422Z,0.00
2019-04-02T02:26:07.215Z,0.00
2019-04-02T02:27:06.472Z,0.00
2019-04-02T02:28:27.492Z,0.00
2019-04-02T02:29:06.475Z,0.00
2019-04-02T02:30:06.466Z,0.00
2019-04-02T02:31:06.800Z,0.00
2019-04-02T02:32:06.577Z,0.00
2019-04-02T02:33:06.916Z,0.00
2019-04-02T02:34:27.451Z,0.00
2019-04-02T02:35:09.006Z,0.00
2019-04-02T02:36:06.398Z,0.00
2019-04-02T02:37:06.405Z,0.00
2019-04-02T02:38:06.399Z,0.00
2019-04-02T02:39:06.387Z,0.00
2019-04-02T02:40:27.394Z,0.00
2019-04-02T02:41:06.386Z,0.00
2019-04-02T02:42:06.391Z,0.00
2019-04-02T02:43:06.358Z,0.00
2019-04-02T02:44:06.354Z,0.00
2019-04-02T02:45:06.440Z,0.00
2019-04-02T02:46:27.346Z,0.00
2019-04-02T02:47:06.347Z,0.00
2019-04-02T02:48:06.324Z,0.00
2019-04-02T02:49:06.325Z,0.00
2019-04-02T02:50:06.319Z,0.00
2019-04-02T02:51:06.295Z,0.00
2019-04-02T02:52:27.306Z,0.00
2019-04-02T02:53:06.262Z,0.00
2019-04-02T02:54:06.291Z,0.00
2019-04-02T02:55:06.280Z,0.00
2019-04-02T02:56:06.265Z,0.00
2019-04-02T02:57:06.251Z,0.00
2019-04-02T02:58:27.256Z,0.00
2019-04-02T02:59:06.242Z,0.00
2019-04-02T03:00:06.210Z,0.00
2019-04-02T03:01:06.223Z,0.00
2019-04-02T03:02:06.205Z,0.00
2019-04-02T03:03:06.210Z,0.00
2019-04-02T03:04:27.210Z,0.00
2019-04-02T03:05:06.176Z,0.00
2019-04-02T03:06:06.179Z,0.00
2019-04-02T03:07:06.175Z,0.00
2019-04-02T03:08:06.206Z,0.00
2019-04-02T03:09:06.166Z,0.00
2019-04-02T03:10:27.178Z,0.00
2019-04-02T03:11:06.128Z,0.00
2019-04-02T03:12:06.754Z,0.00
2019-04-02T03:13:07.406Z,0.00
2019-04-02T03:14:07.563Z,0.00
2019-04-02T03:15:06.122Z,0.00
2019-04-02T03:16:27.098Z,0.00
2019-04-02T03:17:06.141Z,0.00
2019-04-02T03:18:06.114Z,0.00
2019-04-02T03:19:06.088Z,0.00
2019-04-02T03:20:06.062Z,0.00
2019-04-02T03:21:06.070Z,0.00
2019-04-02T03:22:27.035Z,0.00
2019-04-02T03:23:06.052Z,0.00
2019-04-02T03:24:06.038Z,0.00
2019-04-02T03:25:06.027Z,0.00
2019-04-02T03:26:06.030Z,0.00
2019-04-02T03:27:06.052Z,0.00
2019-04-02T03:28:27.020Z,0.00
2019-04-02T03:29:05.997Z,0.00
2019-04-02T03:30:05.980Z,0.00
2019-04-02T03:31:05.967Z,0.00
2019-04-02T03:32:08.982Z,0.00
2019-04-02T03:33:05.978Z,0.00
2019-04-02T03:34:27.144Z,0.00
2019-04-02T03:35:05.940Z,0.00
2019-04-02T03:36:05.938Z,0.00
2019-04-02T03:37:06.206Z,0.00
2019-04-02T03:38:06.391Z,0.00
2019-04-02T03:39:07.182Z,0.00
2019-04-02T03:40:26.910Z,0.00
2019-04-02T03:41:05.891Z,0.00
2019-04-02T03:42:05.891Z,0.00
2019-04-02T03:43:05.870Z,0.00
2019-04-02T03:44:05.870Z,0.00
2019-04-02T03:45:05.873Z,0.00
2019-04-02T03:46:26.849Z,0.00
2019-04-02T03:47:05.851Z,0.00
2019-04-02T03:48:05.884Z,0.00
2019-04-02T03:49:05.825Z,0.00
2019-04-02T03:50:05.835Z,0.00
2019-04-02T03:51:05.818Z,0.00
2019-04-02T03:52:26.824Z,0.00
2019-04-02T03:53:05.795Z,0.00
2019-04-02T03:54:05.852Z,0.00
2019-04-02T03:55:05.780Z,0.00
2019-04-02T03:56:05.761Z,0.00
2019-04-02T03:57:05.764Z,0.00
2019-04-02T03:58:26.759Z,0.00
2019-04-02T03:59:05.793Z,0.00
2019-04-02T04:00:05.730Z,0.00
2019-04-02T04:01:05.725Z,0.00
2019-04-02T04:02:05.731Z,0.00
2019-04-02T04:03:05.715Z,0.00
2019-04-02T04:04:26.739Z,0.00
2019-04-02T04:05:05.694Z,0.00
2019-04-02T04:06:05.688Z,0.00
2019-04-02T04:07:05.720Z,0.00
2019-04-02T04:08:05.703Z,0.00
2019-04-02T04:09:05.657Z,0.00
2019-04-02T04:10:26.658Z,0.00
2019-04-02T04:11:05.646Z,0.00
2019-04-02T04:12:05.651Z,0.00
2019-04-02T04:13:05.633Z,0.00
2019-04-02T04:14:05.624Z,0.00
2019-04-02T04:15:05.621Z,0.00
2019-04-02T04:16:26.654Z,0.00
2019-04-02T04:17:05.588Z,0.00
2019-04-02T04:18:05.637Z,0.00
2019-04-02T04:19:05.635Z,0.00
2019-04-02T04:20:05.625Z,0.00
2019-04-02T04:21:05.558Z,0.00
2019-04-02T04:22:26.570Z,0.00
2019-04-02T04:23:09.117Z,0.00
2019-04-02T04:24:05.554Z,0.00
2019-04-02T04:25:05.570Z,0.00
2019-04-02T04:26:05.527Z,0.00
2019-04-02T04:27:05.513Z,0.00
2019-04-02T04:28:26.577Z,0.00
2019-04-02T04:29:06.197Z,0.00
2019-04-02T04:30:07.980Z,0.00
2019-04-02T04:31:08.202Z,0.00
2019-04-02T04:32:05.484Z,0.00
2019-04-02T04:33:05.456Z,4.00
2019-04-02T04:34:26.463Z,4.00
2019-04-02T04:35:05.441Z,0.00
2019-04-02T04:36:05.445Z,4.00
2019-04-02T04:37:05.427Z,4.00
2019-04-02T04:38:05.419Z,4.00
2019-04-02T04:39:05.455Z,4.00
2019-04-02T04:40:26.414Z,4.00
2019-04-02T04:41:05.415Z,4.00
2019-04-02T04:42:05.388Z,4.00
2019-04-02T04:43:05.384Z,12.00
2019-04-02T04:44:05.361Z,8.00
2019-04-02T04:45:05.368Z,12.00
2019-04-02T04:46:26.360Z,12.00
2019-04-02T04:47:05.333Z,20.00
2019-04-02T04:48:05.341Z,16.00
2019-04-02T04:49:05.336Z,20.00
2019-04-02T04:50:05.306Z,28.00
2019-04-02T04:51:05.289Z,28.00
2019-04-02T04:52:26.753Z,32.00
2019-04-02T04:53:05.283Z,40.00
2019-04-02T04:54:06.475Z,44.00
2019-04-02T04:55:05.283Z,52.00
2019-04-02T04:56:05.270Z,60.00
2019-04-02T04:57:05.316Z,64.00
2019-04-02T04:58:26.242Z,76.00
2019-04-02T04:59:05.249Z,84.00
2019-04-02T05:00:05.210Z,96.00
2019-04-02T05:01:05.214Z,104.00
2019-04-02T05:02:05.225Z,116.00
2019-04-02T05:03:05.199Z,128.00
2019-04-02T05:04:26.196Z,140.00
2019-04-02T05:05:05.191Z,156.00
2019-04-02T05:06:05.177Z,172.00
2019-04-02T05:07:05.160Z,188.00
2019-04-02T05:08:05.153Z,204.00
2019-04-02T05:09:05.143Z,216.00
2019-04-02T05:10:26.141Z,232.00
2019-04-02T05:11:05.113Z,248.00
2019-04-02T05:12:05.127Z,268.00
2019-04-02T05:13:05.110Z,284.00
2019-04-02T05:14:05.118Z,304.00
2019-04-02T05:15:05.096Z,316.00
2019-04-02T05:16:26.090Z,336.00
2019-04-02T05:17:05.106Z,356.00
2019-04-02T05:18:05.080Z,380.00
2019-04-02T05:19:05.066Z,404.00
2019-04-02T05:20:05.049Z,436.00
2019-04-02T05:21:05.062Z,468.00
2019-04-02T05:22:26.045Z,504.00
2019-04-02T05:23:05.026Z,536.00
2019-04-02T05:24:05.084Z,576.00
2019-04-02T05:25:06.766Z,608.00
2019-04-02T05:26:05.003Z,644.00
2019-04-02T05:27:04.992Z,668.00
2019-04-02T05:28:25.998Z,688.00
2019-04-02T05:29:05.483Z,708.00
2019-04-02T05:30:05.236Z,736.00
2019-04-02T05:31:04.958Z,772.00
2019-04-02T05:32:04.954Z,808.00
2019-04-02T05:33:04.956Z,852.00
2019-04-02T05:34:27.092Z,888.00
2019-04-02T05:35:04.951Z,936.00
2019-04-02T05:36:04.929Z,980.00
2019-04-02T05:37:04.916Z,1036.00
2019-04-02T05:38:04.902Z,1096.00
2019-04-02T05:39:04.927Z,1164.00
2019-04-02T05:40:25.887Z,1228.00
2019-04-02T05:41:04.898Z,1276.00
2019-04-02T05:42:04.874Z,1316.00
2019-04-02T05:43:04.852Z,1340.00
2019-04-02T05:44:04.855Z,1356.00
2019-04-02T05:45:04.841Z,1368.00
2019-04-02T05:46:25.949Z,1380.00
2019-04-02T05:47:04.822Z,1392.00
2019-04-02T05:48:04.809Z,1404.00
2019-04-02T05:49:04.807Z,1432.00
2019-04-02T05:50:04.811Z,1484.00
2019-04-02T05:51:04.796Z,1548.00
2019-04-02T05:52:25.782Z,1608.00
2019-04-02T05:53:04.768Z,1664.00
2019-04-02T05:54:04.773Z,1704.00
2019-04-02T05:55:04.753Z,1736.00
2019-04-02T05:56:04.753Z,1760.00
2019-04-02T05:57:04.754Z,1768.00
2019-04-02T05:58:25.742Z,1772.00
2019-04-02T05:59:04.726Z,1768.00
2019-04-02T06:00:04.760Z,1772.00
2019-04-02T06:01:04.735Z,1772.00
2019-04-02T06:02:04.702Z,1780.00
2019-04-02T06:03:04.700Z,1792.00
2019-04-02T06:04:25.683Z,1804.00
2019-04-02T06:05:04.687Z,1812.00
2019-04-02T06:06:04.678Z,1824.00
2019-04-02T06:07:06.324Z,1828.00
2019-04-02T06:08:05.097Z,1836.00
2019-04-02T06:09:04.636Z,1840.00
2019-04-02T06:10:25.642Z,1844.00
2019-04-02T06:11:04.632Z,1868.00
2019-04-02T06:12:04.633Z,1896.00
2019-04-02T06:13:04.613Z,1928.00
2019-04-02T06:14:04.585Z,1960.00
2019-04-02T06:15:04.588Z,1996.00
2019-04-02T06:16:25.590Z,2024.00
2019-04-02T06:17:04.571Z,2056.00
2019-04-02T06:18:04.570Z,2072.00
2019-04-02T06:19:04.554Z,2080.00
2019-04-02T06:20:04.545Z,2080.00
2019-04-02T06:21:04.531Z,2076.00
2019-04-02T06:22:25.537Z,2076.00
2019-04-02T06:23:04.518Z,2080.00
2019-04-02T06:24:04.515Z,2080.00
2019-04-02T06:25:04.509Z,2092.00
2019-04-02T06:26:04.505Z,2104.00
2019-04-02T06:27:04.490Z,2124.00
2019-04-02T06:28:25.491Z,2140.00
2019-04-02T06:29:04.483Z,2176.00
2019-04-02T06:30:04.450Z,2216.00
2019-04-02T06:31:04.450Z,2264.00
2019-04-02T06:32:04.458Z,2320.00
2019-04-02T06:33:04.439Z,2384.00
2019-04-02T06:34:25.436Z,2444.00
2019-04-02T06:35:04.429Z,2500.00
2019-04-02T06:36:04.418Z,2548.00
2019-04-02T06:37:04.425Z,2596.00
2019-04-02T06:38:04.624Z,2656.00
2019-04-02T06:39:04.394Z,2728.00
2019-04-02T06:40:25.390Z,2792.00
2019-04-02T06:41:04.382Z,2840.00
2019-04-02T06:42:04.391Z,2888.00
2019-04-02T06:43:04.622Z,2932.00
2019-04-02T06:44:04.546Z,2964.00
2019-04-02T06:45:04.444Z,2996.00
2019-04-02T06:46:25.337Z,3024.00
2019-04-02T06:47:04.485Z,3036.00
2019-04-02T06:48:04.552Z,3048.00
2019-04-02T06:49:04.304Z,3068.00
2019-04-02T06:50:04.295Z,3092.00
2019-04-02T06:51:04.284Z,3124.00
2019-04-02T06:52:26.641Z,3160.00
2019-04-02T06:53:04.274Z,3184.00
2019-04-02T06:54:04.292Z,3204.00
2019-04-02T06:55:04.279Z,3220.00
2019-04-02T06:56:04.243Z,3228.00
2019-04-02T06:57:04.257Z,3236.00
2019-04-02T06:58:25.233Z,3248.00
2019-04-02T06:59:04.935Z,3260.00
2019-04-02T07:00:04.232Z,3260.00
2019-04-02T07:01:20.631Z,3260.00
2019-04-02T07:02:04.208Z,3272.00
2019-04-02T07:03:04.203Z,3288.00
2019-04-02T07:04:37.334Z,3268.00
2019-04-02T07:05:04.186Z,3244.00
2019-04-02T07:06:04.163Z,3196.00
2019-04-02T07:07:04.172Z,3268.00
2019-04-02T07:08:04.156Z,3480.00
2019-04-02T07:09:04.144Z,3612.00
2019-04-02T07:10:25.149Z,3704.00
2019-04-02T07:11:04.122Z,3792.00
2019-04-02T07:12:04.107Z,3976.00
2019-04-02T07:13:04.110Z,4116.00
2019-04-02T07:19:00.801Z,4836.00
2019-04-02T07:20:03.635Z,4912.00
2019-04-02T07:22:06.067Z,4980.00
2019-04-02T07:23:04.724Z,4988.00
2019-04-02T07:25:08.890Z,4956.00
2019-04-02T07:26:08.694Z,4916.00
2019-04-02T07:28:12.925Z,4840.00
2019-04-02T07:29:12.629Z,4824.00
2019-04-02T07:31:18.298Z,4780.00
2019-04-02T07:32:16.578Z,4752.00
2019-04-02T07:34:20.534Z,4980.00
2019-04-02T07:35:20.517Z,5120.00
2019-04-02T07:37:24.937Z,5424.00
2019-04-02T07:38:24.458Z,5572.00
2019-04-02T07:40:28.445Z,5816.00
2019-04-02T07:41:28.410Z,5864.00
2019-04-02T07:43:21.350Z,5852.00
2019-04-02T07:44:21.326Z,5812.00
2019-04-02T07:46:15.149Z,5676.00
2019-04-02T07:47:14.813Z,5600.00
2019-04-02T07:49:18.707Z,5360.00
2019-04-02T07:50:19.004Z,5216.00
2019-04-02T07:52:24.913Z,5028.00
2019-04-02T07:53:23.026Z,4952.00
2019-04-02T07:55:27.002Z,4936.00
2019-04-02T07:56:26.979Z,4884.00
2019-04-02T07:58:20.378Z,4784.00
2019-04-02T07:59:20.072Z,4868.00
2019-04-02T08:01:25.052Z,5028.00
2019-04-02T08:02:24.039Z,5080.00
2019-04-02T08:04:16.932Z,5128.00
2019-04-02T08:05:16.922Z,5164.00
2019-04-02T08:07:20.878Z,5156.00
2019-04-02T08:08:20.863Z,5056.00
2019-04-02T08:10:24.834Z,4932.00
2019-04-02T08:11:24.805Z,4868.00
2019-04-02T08:13:17.682Z,4764.00
2019-04-02T08:14:17.673Z,4784.00
2019-04-02T08:16:21.646Z,4884.00
2019-04-02T08:17:21.624Z,4940.00
2019-04-02T08:19:25.568Z,5064.00
2019-04-02T08:20:25.628Z,5132.00
2019-04-02T08:22:29.522Z,5112.00
2019-04-02T08:23:29.508Z,5440.00
2019-04-02T08:25:33.463Z,5724.00
2019-04-02T08:26:36.231Z,5828.00
2019-04-02T08:28:26.337Z,6012.00
2019-04-02T08:29:26.327Z,6196.00
2019-04-02T08:31:31.151Z,6608.00
2019-04-02T08:32:30.106Z,6900.00
2019-04-02T08:34:34.056Z,7336.00
2019-04-02T08:35:34.045Z,7276.00
2019-04-02T08:37:38.180Z,7132.00
2019-04-02T08:38:39.403Z,6900.00
2019-04-02T08:40:41.963Z,6180.00
2019-04-02T08:41:41.936Z,6012.00
2019-04-02T08:43:45.896Z,5804.00
2019-04-02T08:44:45.883Z,5712.00
2019-04-02T08:46:49.845Z,5564.00
2019-04-02T08:47:49.832Z,5560.00
2019-04-02T08:49:55.194Z,5552.00
2019-04-02T08:50:53.780Z,5548.00
2019-04-02T08:52:46.661Z,5532.00
2019-04-02T08:53:46.645Z,5516.00
2019-04-02T08:55:50.615Z,5404.00
2019-04-02T08:56:56.254Z,5416.00
2019-04-02T08:58:54.555Z,5396.00
2019-04-02T08:59:55.782Z,5332.00
2019-04-02T09:01:58.542Z,5356.00
2019-04-02T09:02:58.494Z,5360.00
2019-04-02T09:05:02.439Z,5360.00
2019-04-02T09:06:02.432Z,5332.00
2019-04-02T09:08:06.390Z,5172.00
2019-04-02T09:09:06.381Z,5164.00
2019-04-02T09:11:10.344Z,5128.00
2019-04-02T09:12:10.324Z,5116.00
2019-04-02T09:14:15.159Z,5064.00
2019-04-02T09:15:14.271Z,5132.00
2019-04-02T09:17:18.226Z,5084.00
2019-04-02T09:18:18.217Z,5056.00
2019-04-02T09:20:22.172Z,4928.00
2019-04-02T09:21:22.156Z,4924.00
2019-04-02T09:23:15.041Z,4936.00
2019-04-02T09:24:15.089Z,5016.00
2019-04-02T09:26:19.031Z,5140.00
2019-04-02T09:27:18.973Z,5252.00
2019-04-02T09:29:22.959Z,5380.00
2019-04-02T09:30:22.925Z,5372.00
2019-04-02T09:32:36.084Z,5368.00
2019-04-02T09:33:26.893Z,5248.00
2019-04-02T09:35:19.784Z,5332.00
2019-04-02T09:36:19.773Z,5572.00
2019-04-02T09:38:23.741Z,5648.00
2019-04-02T09:39:23.724Z,5696.00
2019-04-02T09:41:27.677Z,5784.00
2019-04-02T09:42:27.672Z,5592.00
2019-04-02T09:44:31.634Z,5900.00
2019-04-02T09:45:31.626Z,6180.00
2019-04-02T09:47:36.153Z,6116.00
2019-04-02T09:48:35.902Z,6032.00
2019-04-02T09:50:39.532Z,6044.00
2019-04-02T09:51:39.523Z,6232.00
2019-04-02T09:53:43.485Z,6480.00
2019-04-02T09:54:43.470Z,6580.00
2019-04-02T09:56:47.432Z,6576.00
2019-04-02T09:57:47.470Z,6656.00
2019-04-02T09:58:47.419Z,6716.00
2019-04-02T09:59:47.974Z,6740.00
2019-04-02T10:00:47.410Z,6808.00
2019-04-02T10:01:47.402Z,7128.00
2019-04-02T10:02:47.398Z,7320.00
2019-04-02T10:03:47.394Z,7336.00
2019-04-02T10:04:47.393Z,7248.00
2019-04-02T10:05:47.383Z,7160.00
2019-04-02T10:06:47.376Z,7156.00
2019-04-02T10:07:47.375Z,7128.00
2019-04-02T10:08:47.370Z,7096.00
2019-04-02T10:09:47.363Z,7336.00
2019-04-02T10:10:47.361Z,7444.00
2019-04-02T10:11:47.401Z,7456.00
2019-04-02T10:12:47.347Z,7408.00
2019-04-02T10:13:47.347Z,7336.00
2019-04-02T10:14:47.346Z,7316.00
2019-04-02T10:15:47.335Z,7324.00
2019-04-02T10:16:47.338Z,7364.00
2019-04-02T10:17:48.217Z,7364.00
2019-04-02T10:18:47.328Z,7424.00
2019-04-02T10:19:47.320Z,7436.00
2019-04-02T10:20:47.313Z,7464.00
2019-04-02T10:21:47.311Z,7512.00
2019-04-02T10:22:47.318Z,7500.00
2019-04-02T10:23:47.305Z,7412.00
2019-04-02T10:24:47.301Z,7372.00
2019-04-02T10:25:47.301Z,7408.00
2019-04-02T10:26:47.292Z,7520.00
2019-04-02T10:27:47.293Z,7592.00
2019-04-02T10:28:48.917Z,7488.00
2019-04-02T10:29:47.277Z,7344.00
2019-04-02T10:30:47.279Z,7272.00
2019-04-02T10:31:47.272Z,7216.00
2019-04-02T10:32:47.268Z,7192.00
2019-04-02T10:33:47.715Z,7132.00
2019-04-02T10:34:47.271Z,6952.00
2019-04-02T10:35:47.263Z,6920.00
2019-04-02T10:36:56.251Z,6816.00
2019-04-02T10:37:47.248Z,6732.00
2019-04-02T10:38:47.245Z,6924.00
2019-04-02T10:39:47.241Z,7100.00
2019-04-02T10:40:47.234Z,7268.00
2019-04-02T10:41:47.233Z,7224.00
2019-04-02T10:42:48.793Z,7184.00
2019-04-02T10:43:47.226Z,7212.00
2019-04-02T10:44:47.234Z,7188.00
2019-04-02T10:45:47.219Z,7208.00
2019-04-02T10:46:47.216Z,7268.00
2019-04-02T10:47:48.521Z,7388.00
2019-04-02T10:48:47.209Z,7428.00
2019-04-02T10:49:47.207Z,7544.00
2019-04-02T10:50:47.202Z,7772.00
2019-04-02T10:51:47.197Z,7868.00
2019-04-02T10:52:47.198Z,7960.00
2019-04-02T10:53:47.192Z,8068.00
2019-04-02T10:54:47.192Z,8124.00
2019-04-02T10:55:47.183Z,8096.00
2019-04-02T10:56:47.181Z,8104.00
2019-04-02T10:57:47.176Z,8160.00
2019-04-02T10:58:47.174Z,8280.00
2019-04-02T10:59:47.170Z,8340.00
2019-04-02T11:00:47.164Z,8404.00
2019-04-02T11:01:47.163Z,8472.00
2019-04-02T11:02:47.158Z,8608.00
2019-04-02T11:03:47.155Z,8768.00
2019-04-02T11:04:47.151Z,8684.00
2019-04-02T11:05:47.146Z,7692.00
2019-04-02T11:06:47.145Z,7172.00
2019-04-02T11:07:47.144Z,7188.00
2019-04-02T11:08:47.139Z,7472.00
2019-04-02T11:09:48.079Z,7720.00
2019-04-02T11:10:47.990Z,7964.00
2019-04-02T11:11:48.273Z,7996.00
2019-04-02T11:12:48.922Z,8308.00
2019-04-02T11:13:47.122Z,8912.00
2019-04-02T11:14:47.121Z,9872.00
2019-04-02T11:15:47.114Z,10304.00
2019-04-02T11:16:47.111Z,11224.00
2019-04-02T11:17:47.112Z,12192.00
2019-04-02T11:18:47.109Z,12880.00
2019-04-02T11:19:47.102Z,13412.00
2019-04-02T11:20:47.097Z,13548.00
2019-04-02T11:21:47.751Z,15744.00
2019-04-02T11:22:47.100Z,14752.00
2019-04-02T11:23:47.093Z,14424.00
2019-04-02T11:24:47.103Z,14140.00
2019-04-02T11:25:47.092Z,15968.00
2019-04-02T11:26:47.081Z,18784.00
2019-04-02T11:27:47.085Z,20768.00
2019-04-02T11:28:47.082Z,18272.00
2019-04-02T11:29:47.078Z,16352.00
2019-04-02T11:30:47.076Z,14752.00
2019-04-02T11:31:47.076Z,14528.00
2019-04-02T11:32:47.068Z,13596.00
2019-04-02T11:33:47.070Z,12580.00
2019-04-02T11:34:47.067Z,11412.00
2019-04-02T11:35:47.064Z,11764.00
2019-04-02T11:36:47.065Z,12700.00
2019-04-02T11:37:47.063Z,11488.00
2019-04-02T11:38:47.059Z,11968.00
2019-04-02T11:39:47.054Z,11096.00
2019-04-02T11:40:47.057Z,11136.00
2019-04-02T11:41:47.054Z,11512.00
2019-04-02T11:42:47.053Z,11236.00
2019-04-02T11:43:48.003Z,11388.00
2019-04-02T11:44:47.091Z,11488.00
2019-04-02T11:45:47.046Z,11680.00
2019-04-02T11:46:47.043Z,12592.00
2019-04-02T11:47:47.046Z,13344.00
2019-04-02T11:48:47.044Z,13248.00
2019-04-02T11:49:47.042Z,15008.00
2019-04-02T11:50:47.040Z,14488.00
2019-04-02T11:51:47.036Z,13968.00
2019-04-02T11:52:47.034Z,13424.00
2019-04-02T11:53:47.034Z,12088.00
2019-04-02T11:54:47.037Z,12316.00
2019-04-02T11:55:47.032Z,13208.00
2019-04-02T11:56:49.628Z,14120.00
2019-04-02T11:57:47.030Z,14456.00
2019-04-02T11:58:47.028Z,14432.00
2019-04-02T11:59:47.026Z,13216.00
2019-04-02T12:00:47.025Z,11772.00
2019-04-02T12:01:47.022Z,11036.00
2019-04-02T12:02:47.025Z,11040.00
2019-04-02T12:03:47.022Z,11260.00
2019-04-02T12:04:47.022Z,11092.00
2019-04-02T12:05:47.018Z,10808.00
2019-04-02T12:57:26.757Z,12824.00
2019-04-02T12:58:24.441Z,12852.00
2019-04-02T13:00:28.532Z,13188.00
2019-04-02T13:01:28.397Z,13312.00
2019-04-02T13:03:21.309Z,14196.00
2019-04-02T13:04:21.288Z,13304.00
2019-04-02T13:06:25.258Z,13176.00
2019-04-02T13:07:25.258Z,13480.00
2019-04-02T13:09:29.233Z,14428.00
2019-04-02T13:10:29.223Z,13516.00
2019-04-02T13:12:33.215Z,13332.00
2019-04-02T13:13:33.191Z,12652.00
2019-04-02T13:15:37.168Z,14000.00
2019-04-02T13:16:49.189Z,14456.00
2019-04-02T13:18:43.248Z,12604.00
2019-04-02T13:19:41.131Z,13864.00
2019-04-02T13:21:45.104Z,14752.00
2019-04-02T13:22:45.099Z,14720.00
2019-04-02T13:24:38.195Z,10268.00
2019-04-02T13:25:38.181Z,9444.00
2019-04-02T13:27:42.156Z,9316.00
2019-04-02T13:28:42.154Z,9256.00
2019-04-02T13:30:46.128Z,8768.00
2019-04-02T13:31:46.116Z,8596.00
2019-04-02T13:33:50.090Z,8788.00
2019-04-02T13:34:50.087Z,9044.00
2019-04-02T13:36:44.437Z,8812.00
2019-04-02T13:37:43.000Z,8620.00
2019-04-02T13:39:46.799Z,9576.00
2019-04-02T13:40:46.784Z,10108.00
2019-04-02T13:42:40.171Z,12520.00
2019-04-02T13:43:40.198Z,11564.00
2019-04-02T13:44:40.167Z,16288.00
2019-04-02T13:45:40.164Z,15584.00
2019-04-02T13:46:40.171Z,10080.00
2019-04-02T13:47:40.169Z,8924.00
2019-04-02T13:48:40.161Z,8508.00
2019-04-02T13:49:41.469Z,8784.00
2019-04-02T13:50:40.163Z,9064.00
2019-04-02T13:51:40.168Z,9424.00
2019-04-02T13:52:40.166Z,9844.00
2019-04-02T13:53:40.165Z,10344.00
2019-04-02T13:54:40.163Z,13452.00
2019-04-02T13:55:40.162Z,17088.00
2019-04-02T13:56:40.175Z,14032.00
2019-04-02T13:57:40.177Z,12060.00
2019-04-02T13:58:40.168Z,15776.00
2019-04-02T13:59:40.167Z,13420.00
2019-04-02T14:00:40.161Z,13480.00
2019-04-02T14:01:40.162Z,11120.00
2019-04-02T14:02:40.163Z,10636.00
2019-04-02T14:03:40.168Z,11508.00
2019-04-02T14:04:40.167Z,11248.00
2019-04-02T14:05:40.162Z,10348.00
2019-04-02T14:06:40.165Z,10216.00
2019-04-02T14:07:40.160Z,10652.00
2019-04-02T14:08:40.163Z,12284.00
2019-04-02T14:09:40.167Z,12144.00
2019-04-02T14:10:40.161Z,12304.00
2019-04-02T14:11:40.170Z,13200.00
2019-04-02T14:12:40.165Z,18112.00
2019-04-02T14:13:40.168Z,18368.00
2019-04-02T14:14:40.161Z,18784.00
2019-04-02T14:15:40.215Z,18944.00
2019-04-02T14:16:40.164Z,15040.00
2019-04-02T14:17:40.193Z,11752.00
2019-04-02T14:18:40.168Z,10236.00
2019-04-02T14:19:40.161Z,9652.00
2019-04-02T14:20:40.161Z,9488.00
2019-04-02T14:21:41.510Z,10428.00
2019-04-02T14:22:40.159Z,13568.00
2019-04-02T14:23:40.163Z,18272.00
2019-04-02T14:24:40.165Z,14548.00
2019-04-02T14:25:40.164Z,16096.00
2019-04-02T14:26:40.163Z,15040.00
2019-04-02T14:27:40.159Z,12160.00
2019-04-02T14:28:40.163Z,11144.00
2019-04-02T14:29:40.162Z,11100.00
2019-04-02T14:30:40.160Z,10124.00
2019-04-02T14:31:40.163Z,9872.00
2019-04-02T14:32:40.160Z,10128.00
2019-04-02T14:33:42.484Z,11260.00
2019-04-02T14:34:40.507Z,12524.00